sensor_id;sensor_type;location;lat;lon;timestamp;pressure;altitude;pressure_sealevel;temperature;humidity
60976;BME280;46849;48.154;17.042;2022-10-22T00:00:35;98825.22;;;9.45;68.53
60976;BME280;46849;48.154;17.042;2022-10-22T00:03:34;98824.28;;;9.46;68.39
60976;BME280;46849;48.154;17.042;2022-10-22T00:06:18;98821.84;;;9.43;68.67
60976;BME280;46849;48.154;17.042;2022-10-22T00:09:03;98834.53;;;9.49;68.33
60976;BME280;46849;48.154;17.042;2022-10-22T00:11:47;98836.41;;;9.47;68.55
60976;BME280;46849;48.154;17.042;2022-10-22T00:14:32;98836.00;;;9.53;68.29
60976;BME280;46849;48.154;17.042;2022-10-22T00:17:17;98833.69;;;9.48;68.80
60976;BME280;46849;48.154;17.042;2022-10-22T00:20:03;98833.59;;;9.50;68.70
60976;BME280;46849;48.154;17.042;2022-10-22T00:22:48;98825.28;;;9.58;68.35
60976;BME280;46849;48.154;17.042;2022-10-22T00:25:34;98823.03;;;9.52;68.54
60976;BME280;46849;48.154;17.042;2022-10-22T00:28:20;98807.94;;;9.42;68.87
60976;BME280;46849;48.154;17.042;2022-10-22T00:31:05;98808.50;;;9.33;69.18
60976;BME280;46849;48.154;17.042;2022-10-22T00:33:50;98805.41;;;9.41;68.78
60976;BME280;46849;48.154;17.042;2022-10-22T00:36:35;98798.66;;;9.09;69.80
60976;BME280;46849;48.154;17.042;2022-10-22T00:39:22;98802.00;;;9.11;70.09
60976;BME280;46849;48.154;17.042;2022-10-22T00:42:12;98801.44;;;9.06;70.19
60976;BME280;46849;48.154;17.042;2022-10-22T00:45:16;98798.91;;;9.04;70.51
60976;BME280;46849;48.154;17.042;2022-10-22T00:48:04;98790.56;;;8.99;70.66
60976;BME280;46849;48.154;17.042;2022-10-22T00:50:59;98788.22;;;8.94;70.94
60976;BME280;46849;48.154;17.042;2022-10-22T00:53:50;98786.53;;;8.93;71.16
60976;BME280;46849;48.154;17.042;2022-10-22T00:56:37;98774.13;;;8.97;70.92
60976;BME280;46849;48.154;17.042;2022-10-22T00:59:21;98763.00;;;8.93;71.12
60976;BME280;46849;48.154;17.042;2022-10-22T01:02:06;98764.78;;;8.93;71.26
60976;BME280;46849;48.154;17.042;2022-10-22T01:04:52;98759.94;;;8.86;71.28
60976;BME280;46849;48.154;17.042;2022-10-22T01:07:43;98762.44;;;8.88;71.48
60976;BME280;46849;48.154;17.042;2022-10-22T01:10:44;98762.66;;;8.85;71.34
60976;BME280;46849;48.154;17.042;2022-10-22T01:26:10;98736.91;;;8.79;71.93
60976;BME280;46849;48.154;17.042;2022-10-22T01:29:09;98737.00;;;8.77;72.12
60976;BME280;46849;48.154;17.042;2022-10-22T01:32:00;98741.56;;;8.88;71.99
60976;BME280;46849;48.154;17.042;2022-10-22T01:34:48;98739.88;;;8.87;71.77
60976;BME280;46849;48.154;17.042;2022-10-22T01:37:41;98741.94;;;8.82;71.98
60976;BME280;46849;48.154;17.042;2022-10-22T01:40:27;98754.63;;;8.88;72.12
60976;BME280;46849;48.154;17.042;2022-10-22T01:43:13;98755.38;;;8.90;71.64
60976;BME280;46849;48.154;17.042;2022-10-22T01:46:00;98762.66;;;8.85;71.87
60976;BME280;46849;48.154;17.042;2022-10-22T01:48:53;98761.81;;;8.84;71.95
60976;BME280;46849;48.154;17.042;2022-10-22T01:52:10;98754.09;;;8.83;71.76
60976;BME280;46849;48.154;17.042;2022-10-22T01:58:29;98733.81;;;8.72;72.27
60976;BME280;46849;48.154;17.042;2022-10-22T02:04:42;98715.72;;;8.69;72.45
60976;BME280;46849;48.154;17.042;2022-10-22T02:07:32;98713.69;;;8.74;72.03
60976;BME280;46849;48.154;17.042;2022-10-22T02:10:40;98708.00;;;8.67;72.32
60976;BME280;46849;48.154;17.042;2022-10-22T02:13:39;98707.53;;;8.60;72.77
60976;BME280;46849;48.154;17.042;2022-10-22T02:16:29;98690.75;;;8.65;72.85
60976;BME280;46849;48.154;17.042;2022-10-22T02:22:11;98679.09;;;8.56;73.11
60976;BME280;46849;48.154;17.042;2022-10-22T02:24:56;98693.38;;;8.65;73.02
60976;BME280;46849;48.154;17.042;2022-10-22T02:27:44;98706.31;;;8.66;72.62
60976;BME280;46849;48.154;17.042;2022-10-22T02:30:32;98698.59;;;8.65;72.90
60976;BME280;46849;48.154;17.042;2022-10-22T02:33:21;98702.66;;;8.69;72.57
60976;BME280;46849;48.154;17.042;2022-10-22T02:36:07;98709.03;;;8.65;72.80
60976;BME280;46849;48.154;17.042;2022-10-22T02:38:53;98713.50;;;8.62;73.08
60976;BME280;46849;48.154;17.042;2022-10-22T02:41:39;98723.19;;;8.60;73.14
60976;BME280;46849;48.154;17.042;2022-10-22T02:44:24;98722.47;;;8.58;73.33
60976;BME280;46849;48.154;17.042;2022-10-22T02:47:08;98709.63;;;8.54;73.49
60976;BME280;46849;48.154;17.042;2022-10-22T02:49:53;98709.63;;;8.54;73.64
60976;BME280;46849;48.154;17.042;2022-10-22T02:52:38;98707.72;;;8.57;73.60
60976;BME280;46849;48.154;17.042;2022-10-22T02:55:23;98694.34;;;8.47;73.80
60976;BME280;46849;48.154;17.042;2022-10-22T02:58:08;98696.97;;;8.47;73.86
60976;BME280;46849;48.154;17.042;2022-10-22T03:00:52;98694.34;;;8.47;73.74
60976;BME280;46849;48.154;17.042;2022-10-22T03:03:37;98684.75;;;8.48;73.77
60976;BME280;46849;48.154;17.042;2022-10-22T03:06:21;98682.06;;;8.49;73.80
60976;BME280;46849;48.154;17.042;2022-10-22T03:09:07;98680.47;;;8.47;73.86
60976;BME280;46849;48.154;17.042;2022-10-22T03:11:51;98685.94;;;8.42;73.99
60976;BME280;46849;48.154;17.042;2022-10-22T03:14:36;98688.03;;;8.37;74.31
60976;BME280;46849;48.154;17.042;2022-10-22T03:17:20;98708.53;;;8.43;74.27
60976;BME280;46849;48.154;17.042;2022-10-22T03:20:05;98712.91;;;8.43;74.10
60976;BME280;46849;48.154;17.042;2022-10-22T03:22:50;98705.28;;;8.40;74.35
60976;BME280;46849;48.154;17.042;2022-10-22T03:25:35;98707.97;;;8.38;74.36
60976;BME280;46849;48.154;17.042;2022-10-22T03:28:20;98714.94;;;8.37;74.43
60976;BME280;46849;48.154;17.042;2022-10-22T03:31:04;98722.16;;;8.34;74.53
60976;BME280;46849;48.154;17.042;2022-10-22T03:33:49;98715.31;;;8.31;74.85
60976;BME280;46849;48.154;17.042;2022-10-22T03:36:33;98706.59;;;8.32;74.74
60976;BME280;46849;48.154;17.042;2022-10-22T03:39:19;98710.09;;;8.31;74.84
60976;BME280;46849;48.154;17.042;2022-10-22T03:42:05;98703.13;;;8.32;74.75
60976;BME280;46849;48.154;17.042;2022-10-22T03:44:51;98708.63;;;8.27;74.94
60976;BME280;46849;48.154;17.042;2022-10-22T03:47:36;98695.84;;;8.22;75.43
60976;BME280;46849;48.154;17.042;2022-10-22T03:50:21;98698.28;;;8.25;75.64
60976;BME280;46849;48.154;17.042;2022-10-22T03:53:05;98684.56;;;8.22;75.13
60976;BME280;46849;48.154;17.042;2022-10-22T03:55:51;98670.94;;;8.17;75.27
60976;BME280;46849;48.154;17.042;2022-10-22T03:58:38;98672.63;;;8.18;75.40
60976;BME280;46849;48.154;17.042;2022-10-22T04:01:23;98665.63;;;8.18;75.40
60976;BME280;46849;48.154;17.042;2022-10-22T04:04:08;98670.66;;;8.21;75.05
60976;BME280;46849;48.154;17.042;2022-10-22T04:06:53;98669.84;;;8.21;75.27
60976;BME280;46849;48.154;17.042;2022-10-22T04:09:37;98654.91;;;8.23;75.27
60976;BME280;46849;48.154;17.042;2022-10-22T04:12:22;98649.69;;;8.23;75.20
60976;BME280;46849;48.154;17.042;2022-10-22T04:15:07;98650.44;;;8.25;75.10
60976;BME280;46849;48.154;17.042;2022-10-22T04:17:53;98638.97;;;8.28;75.13
60976;BME280;46849;48.154;17.042;2022-10-22T04:20:37;98639.81;;;8.28;74.84
60976;BME280;46849;48.154;17.042;2022-10-22T04:23:22;98646.72;;;8.29;75.20
60976;BME280;46849;48.154;17.042;2022-10-22T04:26:07;98638.34;;;8.24;75.27
60976;BME280;46849;48.154;17.042;2022-10-22T04:28:52;98650.63;;;8.22;75.45
60976;BME280;46849;48.154;17.042;2022-10-22T04:31:37;98624.63;;;8.20;75.52
60976;BME280;46849;48.154;17.042;2022-10-22T04:34:21;98630.81;;;8.19;75.69
60976;BME280;46849;48.154;17.042;2022-10-22T04:37:06;98640.09;;;8.23;75.21
60976;BME280;46849;48.154;17.042;2022-10-22T04:39:51;98639.34;;;8.21;75.48
60976;BME280;46849;48.154;17.042;2022-10-22T04:42:35;98636.75;;;8.21;75.68
60976;BME280;46849;48.154;17.042;2022-10-22T04:45:20;98655.19;;;8.18;75.73
60976;BME280;46849;48.154;17.042;2022-10-22T04:48:04;98653.63;;;8.16;75.74
60976;BME280;46849;48.154;17.042;2022-10-22T04:50:49;98652.88;;;8.13;75.92
60976;BME280;46849;48.154;17.042;2022-10-22T04:53:34;98657.16;;;8.14;75.99
60976;BME280;46849;48.154;17.042;2022-10-22T04:56:29;98671.03;;;8.15;76.08
60976;BME280;46849;48.154;17.042;2022-10-22T04:59:14;98685.75;;;8.16;75.74
60976;BME280;46849;48.154;17.042;2022-10-22T05:01:59;98685.75;;;8.16;75.58
60976;BME280;46849;48.154;17.042;2022-10-22T05:04:44;98697.13;;;8.15;75.86
60976;BME280;46849;48.154;17.042;2022-10-22T05:07:28;98698.91;;;8.14;76.05
60976;BME280;46849;48.154;17.042;2022-10-22T05:10:13;98690.16;;;8.16;75.75
60976;BME280;46849;48.154;17.042;2022-10-22T05:12:57;98686.88;;;8.12;75.95
60976;BME280;46849;48.154;17.042;2022-10-22T05:15:42;98688.56;;;8.13;76.04
60976;BME280;46849;48.154;17.042;2022-10-22T05:18:26;98685.84;;;8.14;75.88
60976;BME280;46849;48.154;17.042;2022-10-22T05:21:13;98673.47;;;8.18;77.61
60976;BME280;46849;48.154;17.042;2022-10-22T05:23:59;98681.00;;;9.23;74.19
60976;BME280;46849;48.154;17.042;2022-10-22T05:26:43;98677.22;;;8.43;75.42
60976;BME280;46849;48.154;17.042;2022-10-22T05:29:28;98685.75;;;8.31;75.75
60976;BME280;46849;48.154;17.042;2022-10-22T05:32:13;98690.53;;;8.24;76.06
60976;BME280;46849;48.154;17.042;2022-10-22T05:34:58;98688.75;;;8.24;75.96
60976;BME280;46849;48.154;17.042;2022-10-22T05:37:43;98690.06;;;8.32;75.57
60976;BME280;46849;48.154;17.042;2022-10-22T05:40:27;98695.00;;;8.36;75.39
60976;BME280;46849;48.154;17.042;2022-10-22T05:43:12;98681.41;;;8.31;75.70
60976;BME280;46849;48.154;17.042;2022-10-22T05:46:03;98693.25;;;8.37;75.49
60976;BME280;46849;48.154;17.042;2022-10-22T05:49:02;98698.00;;;8.89;75.21
60976;BME280;46849;48.154;17.042;2022-10-22T05:51:47;98706.78;;;8.87;80.27
60976;BME280;46849;48.154;17.042;2022-10-22T05:54:31;98705.00;;;8.73;74.04
60976;BME280;46849;48.154;17.042;2022-10-22T05:57:17;98711.25;;;8.71;73.83
60976;BME280;46849;48.154;17.042;2022-10-22T06:00:03;98723.06;;;8.91;73.59
60976;BME280;46849;48.154;17.042;2022-10-22T06:02:50;98728.03;;;8.96;73.13
60976;BME280;46849;48.154;17.042;2022-10-22T06:05:35;98726.16;;;8.98;73.44
60976;BME280;46849;48.154;17.042;2022-10-22T06:08:21;98732.13;;;9.00;73.02
60976;BME280;46849;48.154;17.042;2022-10-22T06:11:05;98726.53;;;8.92;73.25
60976;BME280;46849;48.154;17.042;2022-10-22T06:13:50;98728.94;;;8.95;73.05
60976;BME280;46849;48.154;17.042;2022-10-22T06:16:35;98721.97;;;8.95;73.19
60976;BME280;46849;48.154;17.042;2022-10-22T06:19:21;98716.16;;;9.05;72.53
60976;BME280;46849;48.154;17.042;2022-10-22T06:22:06;98711.03;;;9.03;72.74
60976;BME280;46849;48.154;17.042;2022-10-22T06:24:51;98703.66;;;9.91;73.54
60976;BME280;46849;48.154;17.042;2022-10-22T06:27:36;98686.91;;;9.40;71.81
60976;BME280;46849;48.154;17.042;2022-10-22T06:30:20;98658.56;;;9.47;71.30
60976;BME280;46849;48.154;17.042;2022-10-22T06:33:05;98658.84;;;9.70;70.30
60976;BME280;46849;48.154;17.042;2022-10-22T06:35:50;98680.44;;;10.00;69.20
60976;BME280;46849;48.154;17.042;2022-10-22T06:38:34;98683.47;;;10.06;68.90
60976;BME280;46849;48.154;17.042;2022-10-22T06:41:20;98687.53;;;9.97;69.14
60976;BME280;46849;48.154;17.042;2022-10-22T06:44:05;98684.13;;;10.10;68.46
60976;BME280;46849;48.154;17.042;2022-10-22T06:46:50;98686.09;;;10.19;68.09
60976;BME280;46849;48.154;17.042;2022-10-22T06:49:35;98700.63;;;9.97;68.84
60976;BME280;46849;48.154;17.042;2022-10-22T06:52:20;98713.69;;;10.89;80.60
60976;BME280;46849;48.154;17.042;2022-10-22T06:55:05;98712.78;;;10.77;66.91
60976;BME280;46849;48.154;17.042;2022-10-22T06:57:49;98722.50;;;10.88;68.33
60976;BME280;46849;48.154;17.042;2022-10-22T07:00:34;98728.59;;;11.50;64.68
60976;BME280;46849;48.154;17.042;2022-10-22T07:06:25;98743.88;;;11.56;63.52
60976;BME280;46849;48.154;17.042;2022-10-22T07:09:10;98741.50;;;11.53;64.27
60976;BME280;46849;48.154;17.042;2022-10-22T07:11:56;98743.38;;;12.12;62.33
60976;BME280;46849;48.154;17.042;2022-10-22T07:14:41;98757.44;;;12.47;69.61
60976;BME280;46849;48.154;17.042;2022-10-22T07:17:25;98752.41;;;12.89;59.96
60976;BME280;46849;48.154;17.042;2022-10-22T07:20:10;98735.81;;;12.43;61.27
60976;BME280;46849;48.154;17.042;2022-10-22T07:22:55;98720.75;;;12.34;61.70
60976;BME280;46849;48.154;17.042;2022-10-22T07:25:40;98737.09;;;13.62;59.53
60976;BME280;46849;48.154;17.042;2022-10-22T07:28:25;98752.03;;;13.61;58.57
60976;BME280;46849;48.154;17.042;2022-10-22T07:31:12;98760.75;;;13.95;57.72
60976;BME280;46849;48.154;17.042;2022-10-22T07:33:57;98771.56;;;14.13;57.59
60976;BME280;46849;48.154;17.042;2022-10-22T07:36:41;98780.53;;;13.89;57.62
60976;BME280;46849;48.154;17.042;2022-10-22T07:39:26;98785.59;;;13.36;58.74
60976;BME280;46849;48.154;17.042;2022-10-22T07:42:11;98798.75;;;13.36;61.15
60976;BME280;46849;48.154;17.042;2022-10-22T07:44:56;98813.09;;;12.98;60.85
60976;BME280;46849;48.154;17.042;2022-10-22T07:47:43;98822.69;;;13.10;65.87
60976;BME280;46849;48.154;17.042;2022-10-22T07:50:28;98823.03;;;13.28;62.24
60976;BME280;46849;48.154;17.042;2022-10-22T07:53:13;98824.47;;;13.21;66.28
60976;BME280;46849;48.154;17.042;2022-10-22T07:55:58;98823.38;;;13.01;62.05
60976;BME280;46849;48.154;17.042;2022-10-22T07:58:42;98825.69;;;13.05;63.62
60976;BME280;46849;48.154;17.042;2022-10-22T08:01:27;98815.63;;;13.11;66.94
60976;BME280;46849;48.154;17.042;2022-10-22T08:04:12;98814.44;;;12.92;63.47
60976;BME280;46849;48.154;17.042;2022-10-22T08:06:56;98824.47;;;12.98;63.34
60976;BME280;46849;48.154;17.042;2022-10-22T08:09:41;98833.66;;;12.69;65.58
60976;BME280;46849;48.154;17.042;2022-10-22T08:12:26;98826.06;;;12.30;67.41
60976;BME280;46849;48.154;17.042;2022-10-22T08:15:11;98846.97;;;11.83;67.73
60976;BME280;46849;48.154;17.042;2022-10-22T08:17:56;98843.13;;;11.63;69.30
60976;BME280;46849;48.154;17.042;2022-10-22T08:20:41;98859.34;;;12.05;71.11
60976;BME280;46849;48.154;17.042;2022-10-22T08:23:25;98871.63;;;12.65;73.14
60976;BME280;46849;48.154;17.042;2022-10-22T08:26:10;98871.38;;;13.95;68.35
60976;BME280;46849;48.154;17.042;2022-10-22T08:28:55;98870.03;;;13.10;67.83
60976;BME280;46849;48.154;17.042;2022-10-22T08:31:40;98867.97;;;13.02;67.94
60976;BME280;46849;48.154;17.042;2022-10-22T08:34:24;98864.78;;;13.22;70.92
60976;BME280;46849;48.154;17.042;2022-10-22T08:37:09;98861.16;;;13.57;66.16
60976;BME280;46849;48.154;17.042;2022-10-22T08:39:57;98851.84;;;13.18;74.44
60976;BME280;46849;48.154;17.042;2022-10-22T08:46:16;98861.75;;;12.92;73.58
60976;BME280;46849;48.154;17.042;2022-10-22T08:49:12;98861.53;;;11.50;75.65
60976;BME280;46849;48.154;17.042;2022-10-22T08:51:59;98861.19;;;10.78;73.56
60976;BME280;46849;48.154;17.042;2022-10-22T08:54:57;98869.50;;;11.61;72.08
60976;BME280;46849;48.154;17.042;2022-10-22T09:01:00;98895.94;;;11.95;71.25
60976;BME280;46849;48.154;17.042;2022-10-22T09:03:54;98912.41;;;12.71;76.93
60976;BME280;46849;48.154;17.042;2022-10-22T09:06:41;98909.28;;;13.59;86.82
60976;BME280;46849;48.154;17.042;2022-10-22T09:09:33;98883.88;;;13.70;68.63
60976;BME280;46849;48.154;17.042;2022-10-22T09:12:21;98879.22;;;13.50;76.54
60976;BME280;46849;48.154;17.042;2022-10-22T09:15:14;98891.09;;;13.56;80.09
60976;BME280;46849;48.154;17.042;2022-10-22T09:24:29;98917.38;;;11.52;75.77
60976;BME280;46849;48.154;17.042;2022-10-22T09:27:20;98904.66;;;11.96;77.98
60976;BME280;46849;48.154;17.042;2022-10-22T09:30:14;98900.88;;;13.31;80.60
60976;BME280;46849;48.154;17.042;2022-10-22T09:35:52;98904.09;;;11.79;74.39
60976;BME280;46849;48.154;17.042;2022-10-22T09:38:46;98899.06;;;10.87;76.86
60976;BME280;46849;48.154;17.042;2022-10-22T09:41:31;98906.00;;;11.64;92.99
60976;BME280;46849;48.154;17.042;2022-10-22T09:44:17;98890.66;;;11.20;77.66
60976;BME280;46849;48.154;17.042;2022-10-22T09:47:11;98865.50;;;10.79;80.94
60976;BME280;46849;48.154;17.042;2022-10-22T09:50:45;98858.16;;;10.97;75.05
60976;BME280;46849;48.154;17.042;2022-10-22T09:53:38;98864.97;;;10.61;81.50
60976;BME280;46849;48.154;17.042;2022-10-22T09:56:37;98872.84;;;10.87;75.70
60976;BME280;46849;48.154;17.042;2022-10-22T09:59:33;98864.22;;;10.58;77.43
60976;BME280;46849;48.154;17.042;2022-10-22T10:02:22;98872.63;;;10.77;77.14
60976;BME280;46849;48.154;17.042;2022-10-22T10:05:07;98870.53;;;11.21;78.72
60976;BME280;46849;48.154;17.042;2022-10-22T10:08:07;98899.16;;;11.11;74.66
60976;BME280;46849;48.154;17.042;2022-10-22T10:11:00;98922.09;;;10.68;76.41
60976;BME280;46849;48.154;17.042;2022-10-22T10:14:12;98924.69;;;10.55;76.87
60976;BME280;46849;48.154;17.042;2022-10-22T10:17:32;98926.91;;;10.34;79.59
60976;BME280;46849;48.154;17.042;2022-10-22T10:23:30;98922.63;;;10.33;82.46
60976;BME280;46849;48.154;17.042;2022-10-22T10:35:25;98915.38;;;10.64;86.18
60976;BME280;46849;48.154;17.042;2022-10-22T10:38:24;98913.50;;;10.79;85.03
60976;BME280;46849;48.154;17.042;2022-10-22T10:44:29;98904.88;;;10.64;85.99
60976;BME280;46849;48.154;17.042;2022-10-22T10:47:45;98893.50;;;10.91;86.30
60976;BME280;46849;48.154;17.042;2022-10-22T10:54:15;98907.41;;;10.79;86.76
60976;BME280;46849;48.154;17.042;2022-10-22T10:57:18;98907.41;;;10.79;87.92
60976;BME280;46849;48.154;17.042;2022-10-22T11:00:16;98894.84;;;10.84;88.59
60976;BME280;46849;48.154;17.042;2022-10-22T11:06:02;98882.91;;;11.06;86.92
60976;BME280;46849;48.154;17.042;2022-10-22T11:08:54;98886.28;;;10.82;87.05
60976;BME280;46849;48.154;17.042;2022-10-22T11:12:14;98889.81;;;10.40;90.51
60976;BME280;46849;48.154;17.042;2022-10-22T11:15:33;98885.41;;;10.28;90.63
60976;BME280;46849;48.154;17.042;2022-10-22T11:18:28;98892.44;;;10.40;90.05
60976;BME280;46849;48.154;17.042;2022-10-22T11:21:40;98887.38;;;10.52;89.93
60976;BME280;46849;48.154;17.042;2022-10-22T11:24:31;98882.88;;;10.54;89.47
60976;BME280;46849;48.154;17.042;2022-10-22T11:27:28;98878.47;;;12.07;84.60
60976;BME280;46849;48.154;17.042;2022-10-22T11:30:18;98867.50;;;11.14;88.13
60976;BME280;46849;48.154;17.042;2022-10-22T11:33:06;98862.69;;;10.82;89.82
60976;BME280;46849;48.154;17.042;2022-10-22T11:35:55;98859.31;;;10.80;90.93
60976;BME280;46849;48.154;17.042;2022-10-22T11:38:41;98860.16;;;10.93;90.72
60976;BME280;46849;48.154;17.042;2022-10-22T11:41:27;98861.09;;;10.92;91.16
60976;BME280;46849;48.154;17.042;2022-10-22T11:44:22;98847.66;;;10.84;92.53
60976;BME280;46849;48.154;17.042;2022-10-22T11:47:17;98848.41;;;10.99;93.38
60976;BME280;46849;48.154;17.042;2022-10-22T11:58:58;98856.91;;;11.16;95.22
60976;BME280;46849;48.154;17.042;2022-10-22T12:01:46;98865.28;;;11.08;96.64
60976;BME280;46849;48.154;17.042;2022-10-22T12:04:40;98870.72;;;10.79;99.39
60976;BME280;46849;48.154;17.042;2022-10-22T12:07:51;98867.28;;;10.65;100.00
60976;BME280;46849;48.154;17.042;2022-10-22T12:10:48;98864.66;;;10.65;100.00
60976;BME280;46849;48.154;17.042;2022-10-22T12:20:06;98868.19;;;11.29;95.62
60976;BME280;46849;48.154;17.042;2022-10-22T12:22:56;98864.75;;;11.16;97.15
60976;BME280;46849;48.154;17.042;2022-10-22T12:25:41;98872.53;;;11.17;98.24
60976;BME280;46849;48.154;17.042;2022-10-22T12:28:26;98869.47;;;11.24;99.69
60976;BME280;46849;48.154;17.042;2022-10-22T12:31:15;98862.63;;;11.34;98.97
60976;BME280;46849;48.154;17.042;2022-10-22T12:34:00;98856.56;;;11.71;99.68
60976;BME280;46849;48.154;17.042;2022-10-22T12:36:46;98871.13;;;11.75;97.45
60976;BME280;46849;48.154;17.042;2022-10-22T12:39:31;98874.34;;;12.52;96.79
60976;BME280;46849;48.154;17.042;2022-10-22T12:42:18;98882.03;;;12.06;93.95
60976;BME280;46849;48.154;17.042;2022-10-22T12:45:05;98880.91;;;11.98;93.88
60976;BME280;46849;48.154;17.042;2022-10-22T12:47:55;98876.00;;;11.68;93.66
60976;BME280;46849;48.154;17.042;2022-10-22T12:50:46;98870.47;;;11.47;94.28
60976;BME280;46849;48.154;17.042;2022-10-22T12:53:36;98867.44;;;11.40;95.50
60976;BME280;46849;48.154;17.042;2022-10-22T12:56:28;98867.38;;;11.29;97.44
60976;BME280;46849;48.154;17.042;2022-10-22T12:59:34;98864.00;;;11.27;98.01
60976;BME280;46849;48.154;17.042;2022-10-22T13:02:24;98858.44;;;11.18;99.16
60976;BME280;46849;48.154;17.042;2022-10-22T13:08:07;98865.50;;;11.18;100.00
60976;BME280;46849;48.154;17.042;2022-10-22T13:10:53;98853.97;;;11.07;100.00
60976;BME280;46849;48.154;17.042;2022-10-22T13:13:40;98868.03;;;10.93;100.00
60976;BME280;46849;48.154;17.042;2022-10-22T13:16:28;98864.66;;;10.91;100.00
60976;BME280;46849;48.154;17.042;2022-10-22T13:19:39;98865.56;;;11.16;100.00
60976;BME280;46849;48.154;17.042;2022-10-22T13:25:30;98872.78;;;11.52;100.00
60976;BME280;46849;48.154;17.042;2022-10-22T13:28:19;98878.25;;;11.49;99.96
60976;BME280;46849;48.154;17.042;2022-10-22T13:31:14;98878.16;;;11.37;99.91
60976;BME280;46849;48.154;17.042;2022-10-22T13:34:03;98882.13;;;11.30;100.00
60976;BME280;46849;48.154;17.042;2022-10-22T13:36:49;98876.69;;;11.33;100.00
60976;BME280;46849;48.154;17.042;2022-10-22T13:39:34;98881.94;;;11.33;100.00
60976;BME280;46849;48.154;17.042;2022-10-22T13:42:21;98885.19;;;11.37;100.00
60976;BME280;46849;48.154;17.042;2022-10-22T13:45:07;98877.84;;;11.42;100.00
60976;BME280;46849;48.154;17.042;2022-10-22T13:47:53;98865.56;;;11.16;100.00
60976;BME280;46849;48.154;17.042;2022-10-22T13:50:38;98864.34;;;11.09;100.00
60976;BME280;46849;48.154;17.042;2022-10-22T13:53:24;98863.91;;;11.66;100.00
60976;BME280;46849;48.154;17.042;2022-10-22T13:56:14;98861.44;;;11.51;100.00
60976;BME280;46849;48.154;17.042;2022-10-22T13:58:59;98861.72;;;13.84;100.00
60976;BME280;46849;48.154;17.042;2022-10-22T14:01:44;98862.94;;;14.12;93.54
60976;BME280;46849;48.154;17.042;2022-10-22T14:04:29;98852.31;;;12.66;94.11
60976;BME280;46849;48.154;17.042;2022-10-22T14:07:14;98858.00;;;12.24;95.88
60976;BME280;46849;48.154;17.042;2022-10-22T14:09:59;98860.16;;;11.94;97.95
60976;BME280;46849;48.154;17.042;2022-10-22T14:12:44;98862.13;;;11.66;100.00
60976;BME280;46849;48.154;17.042;2022-10-22T14:15:30;98858.84;;;11.76;100.00
60976;BME280;46849;48.154;17.042;2022-10-22T14:18:19;98863.13;;;12.62;100.00
60976;BME280;46849;48.154;17.042;2022-10-22T14:21:10;98861.41;;;13.31;100.00
60976;BME280;46849;48.154;17.042;2022-10-22T14:23:56;98865.59;;;13.22;100.00
60976;BME280;46849;48.154;17.042;2022-10-22T14:26:40;98868.81;;;12.91;100.00
60976;BME280;46849;48.154;17.042;2022-10-22T14:29:25;98882.22;;;12.52;100.00
60976;BME280;46849;48.154;17.042;2022-10-22T14:32:15;98875.53;;;12.96;100.00
60976;BME280;46849;48.154;17.042;2022-10-22T14:34:59;98873.00;;;12.83;100.00
60976;BME280;46849;48.154;17.042;2022-10-22T14:37:45;98882.47;;;13.31;100.00
60976;BME280;46849;48.154;17.042;2022-10-22T14:40:29;98881.97;;;13.14;100.00
60976;BME280;46849;48.154;17.042;2022-10-22T14:43:19;98880.56;;;13.22;100.00
60976;BME280;46849;48.154;17.042;2022-10-22T14:46:04;98878.84;;;13.32;100.00
60976;BME280;46849;48.154;17.042;2022-10-22T14:48:49;98871.09;;;13.19;100.00
60976;BME280;46849;48.154;17.042;2022-10-22T14:51:33;98876.66;;;13.83;97.26
60976;BME280;46849;48.154;17.042;2022-10-22T14:54:18;98883.81;;;13.92;97.20
60976;BME280;46849;48.154;17.042;2022-10-22T14:57:03;98880.66;;;13.32;99.84
60976;BME280;46849;48.154;17.042;2022-10-22T14:59:48;98882.69;;;13.62;98.51
60976;BME280;46849;48.154;17.042;2022-10-22T15:02:33;98882.59;;;13.64;100.00
60976;BME280;46849;48.154;17.042;2022-10-22T15:05:18;98885.09;;;13.54;100.00
60976;BME280;46849;48.154;17.042;2022-10-22T15:08:03;98890.72;;;13.26;98.88
60976;BME280;46849;48.154;17.042;2022-10-22T15:11:05;98889.63;;;13.17;99.70
60976;BME280;46849;48.154;17.042;2022-10-22T15:13:50;98875.03;;;12.90;97.68
60976;BME280;46849;48.154;17.042;2022-10-22T15:16:36;98890.94;;;13.23;100.00
60976;BME280;46849;48.154;17.042;2022-10-22T15:19:21;98894.28;;;13.37;98.18
60976;BME280;46849;48.154;17.042;2022-10-22T15:22:05;98886.59;;;13.79;100.00
60976;BME280;46849;48.154;17.042;2022-10-22T15:24:51;98893.22;;;13.28;100.00
60976;BME280;46849;48.154;17.042;2022-10-22T15:27:37;98896.47;;;13.66;100.00
60976;BME280;46849;48.154;17.042;2022-10-22T15:30:21;98905.53;;;13.39;100.00
60976;BME280;46849;48.154;17.042;2022-10-22T15:33:06;98914.63;;;13.46;100.00
60976;BME280;46849;48.154;17.042;2022-10-22T15:35:51;98911.06;;;13.59;100.00
60976;BME280;46849;48.154;17.042;2022-10-22T15:38:36;98912.34;;;12.96;98.47
60976;BME280;46849;48.154;17.042;2022-10-22T15:41:20;98915.41;;;13.01;100.00
60976;BME280;46849;48.154;17.042;2022-10-22T15:44:05;98913.38;;;12.93;100.00
60976;BME280;46849;48.154;17.042;2022-10-22T15:46:51;98919.13;;;12.87;100.00
60976;BME280;46849;48.154;17.042;2022-10-22T15:49:37;98917.91;;;12.79;100.00
60976;BME280;46849;48.154;17.042;2022-10-22T15:52:22;98920.31;;;12.83;100.00
60976;BME280;46849;48.154;17.042;2022-10-22T15:55:07;98919.28;;;13.20;100.00
60976;BME280;46849;48.154;17.042;2022-10-22T15:57:53;98920.69;;;13.01;100.00
60976;BME280;46849;48.154;17.042;2022-10-22T16:00:38;98922.59;;;12.87;100.00
60976;BME280;46849;48.154;17.042;2022-10-22T16:03:23;98923.91;;;13.04;100.00
60976;BME280;46849;48.154;17.042;2022-10-22T16:06:08;98915.22;;;13.38;100.00